createdAt,value
2023-01-10T00:01:48.190Z,4.30
2023-01-10T00:07:59.405Z,4.40
2023-01-10T00:11:24.772Z,4.43
2023-01-10T00:14:29.188Z,4.32
2023-01-10T00:17:36.843Z,3.72
2023-01-10T00:20:42.852Z,3.88
2023-01-10T00:23:49.224Z,3.53
2023-01-10T00:26:55.179Z,4.10
2023-01-10T00:30:05.608Z,3.17
2023-01-10T00:33:20.123Z,3.72
2023-01-10T00:36:25.568Z,3.97
2023-01-10T00:39:31.854Z,3.60
2023-01-10T00:42:49.549Z,4.20
2023-01-10T00:45:54.845Z,3.35
2023-01-10T00:49:08.604Z,4.18
2023-01-10T00:52:14.446Z,3.45
2023-01-10T00:55:19.609Z,3.97
2023-01-10T00:58:25.644Z,3.38
2023-01-10T01:01:31.323Z,4.22
2023-01-10T01:04:39.658Z,4.03
2023-01-10T01:07:45.392Z,4.28
2023-01-10T01:10:53.646Z,4.55
2023-01-10T01:13:59.176Z,4.22
2023-01-10T01:17:04.607Z,4.00
2023-01-10T01:20:13.623Z,3.55
2023-01-10T01:23:18.888Z,3.85
2023-01-10T01:26:24.235Z,4.28
2023-01-10T01:29:42.436Z,4.22
2023-01-10T01:32:48.481Z,3.67
2023-01-10T01:35:56.838Z,4.25
2023-01-10T01:39:02.189Z,4.10
2023-01-10T01:42:08.374Z,3.65
2023-01-10T01:45:28.573Z,4.45
2023-01-10T01:48:36.539Z,4.63
2023-01-10T01:51:46.363Z,3.70
2023-01-10T01:54:52.245Z,3.65
2023-01-10T01:57:58.954Z,4.38
2023-01-10T02:01:04.263Z,4.55
2023-01-10T02:04:12.361Z,4.45
2023-01-10T02:07:20.821Z,3.67
2023-01-10T02:10:29.305Z,4.93
2023-01-10T02:13:35.189Z,3.83
2023-01-10T02:16:40.404Z,3.90
2023-01-10T02:19:51.487Z,3.53
2023-01-10T02:23:14.908Z,4.57
2023-01-10T02:26:40.009Z,4.00
2023-01-10T02:30:12.192Z,5.07
2023-01-10T02:33:24.642Z,4.07
2023-01-10T02:36:38.952Z,4.38
2023-01-10T02:39:51.065Z,4.18
2023-01-10T02:43:01.340Z,4.28
2023-01-10T02:46:09.409Z,4.00
2023-01-10T02:49:17.551Z,4.10
2023-01-10T02:52:24.277Z,4.47
2023-01-10T02:55:31.718Z,4.60
2023-01-10T02:58:43.043Z,4.60
2023-01-10T03:01:53.731Z,5.50
2023-01-10T03:05:09.421Z,4.60
2023-01-10T03:08:21.564Z,4.90
2023-01-10T03:11:42.760Z,4.60
2023-01-10T03:14:48.441Z,3.72
2023-01-10T03:17:55.085Z,4.18
2023-01-10T03:21:05.498Z,5.57
2023-01-10T03:24:14.228Z,4.18
2023-01-10T03:27:23.073Z,4.57
2023-01-10T03:30:30.708Z,4.75
2023-01-10T03:36:45.598Z,4.82
2023-01-10T03:39:55.696Z,5.07
2023-01-10T03:43:16.746Z,4.57
2023-01-10T03:46:27.788Z,4.95
2023-01-10T03:49:34.645Z,4.80
2023-01-10T03:52:44.011Z,4.57
2023-01-10T03:55:49.322Z,5.13
2023-01-10T03:58:54.818Z,5.40
2023-01-10T04:02:00.748Z,4.85
2023-01-10T04:05:06.163Z,4.82
2023-01-10T04:08:14.291Z,5.60
2023-01-10T04:11:19.541Z,5.28
2023-01-10T04:14:25.000Z,4.75
2023-01-10T04:17:30.097Z,4.97
2023-01-10T04:20:35.558Z,4.88
2023-01-10T04:23:43.681Z,5.95
2023-01-10T04:26:49.008Z,5.22
2023-01-10T04:29:54.352Z,4.50
2023-01-10T04:33:00.091Z,5.43
2023-01-10T04:36:05.426Z,4.68
2023-01-10T04:39:13.603Z,5.20
2023-01-10T04:42:19.573Z,5.55
2023-01-10T04:45:24.888Z,4.63
2023-01-10T04:48:30.461Z,5.55
2023-01-10T04:51:35.638Z,5.15
2023-01-10T04:54:43.806Z,4.50
2023-01-10T04:57:49.046Z,5.10
2023-01-10T05:00:54.894Z,4.72
2023-01-10T05:04:00.491Z,5.80
2023-01-10T05:07:06.455Z,5.22
2023-01-10T05:10:14.793Z,6.20
2023-01-10T05:13:20.483Z,4.85
2023-01-10T05:16:26.077Z,5.78
2023-01-10T05:19:31.591Z,4.85
2023-01-10T05:22:37.132Z,5.32
2023-01-10T05:25:45.026Z,6.00
2023-01-10T05:28:50.971Z,5.28
2023-01-10T05:31:56.182Z,5.47
2023-01-10T05:35:01.754Z,5.28
2023-01-10T05:38:09.031Z,5.65
2023-01-10T05:41:16.932Z,5.32
2023-01-10T05:44:22.674Z,4.63
2023-01-10T05:47:28.495Z,6.07
2023-01-10T05:50:34.750Z,5.45
2023-01-10T05:53:40.278Z,5.47
2023-01-10T05:56:48.100Z,5.40
2023-01-10T06:02:58.837Z,5.82
2023-01-10T06:06:04.732Z,6.15
2023-01-10T06:09:09.936Z,6.22
2023-01-10T06:12:19.142Z,6.32
2023-01-10T06:15:24.201Z,6.18
2023-01-10T06:18:29.783Z,5.88
2023-01-10T06:21:35.035Z,5.82
2023-01-10T06:24:40.898Z,6.30
2023-01-10T06:27:49.145Z,5.22
2023-01-10T06:30:54.638Z,6.07
2023-01-10T06:33:59.926Z,5.38
2023-01-10T06:37:05.416Z,5.72
2023-01-10T06:40:11.434Z,5.03
2023-01-10T06:43:20.787Z,6.07
2023-01-10T06:46:26.443Z,5.80
2023-01-10T06:49:31.761Z,5.18
2023-01-10T06:52:37.541Z,5.95
2023-01-10T06:55:42.955Z,5.45
2023-01-10T06:58:51.320Z,4.82
2023-01-10T07:01:57.209Z,5.50
2023-01-10T07:05:02.528Z,5.15
2023-01-10T07:08:09.071Z,5.50
2023-01-10T07:11:15.039Z,4.97
2023-01-10T07:14:23.612Z,4.45
2023-01-10T07:17:28.664Z,5.22
2023-01-10T07:20:34.232Z,5.43
2023-01-10T07:23:39.445Z,5.15
2023-01-10T07:26:44.687Z,4.80
2023-01-10T07:29:52.754Z,5.38
2023-01-10T07:36:03.392Z,5.05
2023-01-10T07:39:08.943Z,5.30
2023-01-10T07:42:14.029Z,4.93
2023-01-10T07:45:22.479Z,5.07
2023-01-10T07:48:28.068Z,4.68
2023-01-10T07:51:33.447Z,4.45
2023-01-10T07:54:38.835Z,4.78
2023-01-10T07:57:44.580Z,5.03
2023-01-10T08:00:52.857Z,5.90
2023-01-10T08:03:58.757Z,4.47
2023-01-10T08:07:04.820Z,4.15
2023-01-10T08:10:10.578Z,4.45
2023-01-10T08:13:19.449Z,4.43
2023-01-10T08:16:27.323Z,4.68
2023-01-10T08:22:38.026Z,4.53
2023-01-10T08:25:43.809Z,4.55
2023-01-10T08:28:49.121Z,5.28
2023-01-10T08:31:56.965Z,7.63
2023-01-10T08:41:15.401Z,4.05
2023-01-10T08:44:21.139Z,4.10
2023-01-10T08:47:29.126Z,5.03
2023-01-10T08:50:35.060Z,4.07
2023-01-10T08:53:42.184Z,5.30
2023-01-10T08:56:47.465Z,4.60
2023-01-10T08:59:53.257Z,6.45
2023-01-10T09:03:01.507Z,5.28
2023-01-10T09:06:07.000Z,4.70
2023-01-10T09:09:12.721Z,4.60
2023-01-10T09:12:30.671Z,4.50
2023-01-10T09:18:43.718Z,4.45
2023-01-10T09:21:49.151Z,4.93
2023-01-10T09:24:56.128Z,4.60
2023-01-10T09:28:02.030Z,4.72
2023-01-10T09:31:09.284Z,5.13
2023-01-10T09:34:17.421Z,4.45
2023-01-10T09:37:22.982Z,4.05
2023-01-10T09:40:34.910Z,4.15
2023-01-10T09:43:47.014Z,4.35
2023-01-10T09:46:57.044Z,4.82
2023-01-10T09:50:09.932Z,3.83
2023-01-10T09:53:17.796Z,4.10
2023-01-10T09:56:23.412Z,3.90
2023-01-10T09:59:29.850Z,5.03
2023-01-10T10:02:37.809Z,4.55
2023-01-10T10:05:45.737Z,4.68
2023-01-10T10:12:03.015Z,3.67
2023-01-10T10:15:16.721Z,5.18
2023-01-10T10:18:27.738Z,3.85
2023-01-10T10:21:40.784Z,4.05
2023-01-10T10:24:55.340Z,3.97
2023-01-10T10:28:07.550Z,4.28
2023-01-10T10:31:18.407Z,4.05
2023-01-10T10:34:26.924Z,3.70
2023-01-10T10:37:37.099Z,3.83
2023-01-10T10:40:44.223Z,4.22
2023-01-10T10:43:50.471Z,4.43
2023-01-10T10:46:56.657Z,4.53
2023-01-10T10:50:05.842Z,3.88
2023-01-10T10:53:14.911Z,3.60
2023-01-10T10:56:22.938Z,4.35
2023-01-10T10:59:28.454Z,3.75
2023-01-10T11:02:35.723Z,4.20
2023-01-10T11:05:43.212Z,3.88
2023-01-10T11:08:53.625Z,4.43
2023-01-10T11:11:59.862Z,4.25
2023-01-10T11:15:05.516Z,3.70
2023-01-10T11:18:13.929Z,4.45
2023-01-10T11:21:22.874Z,4.30
2023-01-10T11:24:34.145Z,4.10
2023-01-10T11:27:51.084Z,4.43
2023-01-10T11:30:56.523Z,4.30
2023-01-10T11:34:02.508Z,4.50
2023-01-10T11:37:09.212Z,4.53
2023-01-10T11:40:26.180Z,4.95
2023-01-10T11:43:34.136Z,5.35
2023-01-10T11:46:39.756Z,4.55
2023-01-10T11:49:46.201Z,4.45
2023-01-10T11:52:52.947Z,5.20
2023-01-10T11:56:01.029Z,4.40
2023-01-10T11:59:13.027Z,4.47
2023-01-10T12:02:20.600Z,4.30
2023-01-10T12:05:26.621Z,4.75
2023-01-10T12:08:33.305Z,4.38
2023-01-10T12:11:41.841Z,4.45
2023-01-10T12:14:47.925Z,5.03
2023-01-10T12:17:53.217Z,5.03
2023-01-10T12:21:00.571Z,4.55
2023-01-10T12:24:08.042Z,5.20
2023-01-10T12:27:17.780Z,4.78
2023-01-10T12:30:26.759Z,5.38
2023-01-10T12:33:35.445Z,5.03
2023-01-10T12:36:46.479Z,5.15
2023-01-10T12:39:55.399Z,5.13
2023-01-10T12:43:19.155Z,4.97
2023-01-10T12:47:00.057Z,4.95
2023-01-10T12:49:56.555Z,5.10
2023-01-10T12:53:04.419Z,5.88
2023-01-10T12:56:13.191Z,4.97
2023-01-10T12:59:36.344Z,5.43
2023-01-10T13:02:44.319Z,5.20
2023-01-10T13:05:52.320Z,5.65
2023-01-10T13:12:06.988Z,4.88
2023-01-10T13:15:21.683Z,5.32
2023-01-10T13:18:28.850Z,5.45
2023-01-10T13:21:35.260Z,4.82
2023-01-10T13:24:40.456Z,5.07
2023-01-10T13:27:46.027Z,4.90
2023-01-10T13:30:57.291Z,4.45
2023-01-10T13:34:03.844Z,5.65
2023-01-10T13:37:14.984Z,4.90
2023-01-10T13:40:24.924Z,5.32
2023-01-10T13:44:02.228Z,4.97
2023-01-10T13:47:12.764Z,5.80
2023-01-10T13:50:42.477Z,5.60
2023-01-10T13:53:55.362Z,6.20
2023-01-10T13:57:00.509Z,5.30
2023-01-10T14:00:19.706Z,5.72
2023-01-10T14:03:39.794Z,4.65
2023-01-10T14:06:47.962Z,5.07
2023-01-10T14:09:54.584Z,4.78
2023-01-10T14:13:09.554Z,5.40
2023-01-10T14:16:29.922Z,5.47
2023-01-10T14:19:36.356Z,5.38
2023-01-10T14:22:48.525Z,5.20
2023-01-10T14:25:56.597Z,4.53
2023-01-10T14:29:03.466Z,5.00
2023-01-10T14:32:15.649Z,4.68
2023-01-10T14:35:22.664Z,4.90
2023-01-10T14:38:32.208Z,5.45
2023-01-10T14:41:38.755Z,5.22
2023-01-10T14:44:47.466Z,5.30
2023-01-10T14:47:54.238Z,4.60
2023-01-10T14:51:14.694Z,4.75
2023-01-10T14:54:23.775Z,4.55
2023-01-10T14:57:29.048Z,4.95
2023-01-10T15:00:36.642Z,5.15
2023-01-10T15:03:48.347Z,5.35
2023-01-10T15:06:54.698Z,4.43
2023-01-10T15:10:06.461Z,4.57
2023-01-10T15:13:12.260Z,5.53
2023-01-10T15:19:26.399Z,4.53
2023-01-10T15:22:33.082Z,4.53
2023-01-10T15:25:41.900Z,4.47
2023-01-10T15:28:49.343Z,4.93
2023-01-10T15:31:56.051Z,4.38
2023-01-10T15:35:01.699Z,4.40
2023-01-10T15:38:10.499Z,4.28
2023-01-10T15:41:22.788Z,4.63
2023-01-10T15:44:37.483Z,4.20
2023-01-10T15:47:44.848Z,3.97
2023-01-10T15:50:58.503Z,4.55
2023-01-10T15:54:07.470Z,4.57
2023-01-10T15:57:24.603Z,5.00
2023-01-10T16:00:30.301Z,4.18
2023-01-10T16:03:37.919Z,4.65
2023-01-10T16:06:44.465Z,5.03
2023-01-10T16:09:58.824Z,4.68
2023-01-10T16:13:27.609Z,5.05
2023-01-10T16:16:33.602Z,5.00
2023-01-10T16:19:39.164Z,4.65
2023-01-10T16:22:44.979Z,4.57
2023-01-10T16:25:51.974Z,4.57
2023-01-10T16:28:59.990Z,4.32
2023-01-10T16:32:05.688Z,4.35
2023-01-10T16:35:12.306Z,4.72
2023-01-10T16:38:18.230Z,4.65
2023-01-10T16:41:35.754Z,4.93
2023-01-10T16:44:44.778Z,4.68
2023-01-10T16:47:50.247Z,4.50
2023-01-10T16:50:55.656Z,4.60
2023-01-10T16:54:01.380Z,4.75
2023-01-10T16:57:06.830Z,4.30
2023-01-10T17:00:15.879Z,4.65
2023-01-10T17:03:23.480Z,4.05
2023-01-10T17:09:34.466Z,5.20
2023-01-10T17:12:42.639Z,5.43
2023-01-10T17:15:51.520Z,4.70
2023-01-10T17:18:56.979Z,5.32
2023-01-10T17:22:02.462Z,5.57
2023-01-10T17:25:08.480Z,4.65
2023-01-10T17:28:14.614Z,5.43
2023-01-10T17:31:22.673Z,5.43
2023-01-10T17:34:29.970Z,5.25
2023-01-10T17:37:35.194Z,5.43
2023-01-10T17:40:42.980Z,5.57
2023-01-10T17:43:48.317Z,5.93
2023-01-10T17:46:57.388Z,5.00
2023-01-10T17:50:02.943Z,5.30
2023-01-10T17:53:09.206Z,6.28
2023-01-10T17:56:15.751Z,5.60
2023-01-10T17:59:21.934Z,5.63
2023-01-10T18:02:30.060Z,5.32
2023-01-10T18:05:35.634Z,5.03
2023-01-10T18:08:40.738Z,5.55
2023-01-10T18:11:45.786Z,4.75
2023-01-10T18:14:51.259Z,5.85
2023-01-10T18:17:59.449Z,5.32
2023-01-10T18:21:05.644Z,5.53
2023-01-10T18:24:11.337Z,5.55
2023-01-10T18:27:16.765Z,5.93
2023-01-10T18:30:22.934Z,4.93
2023-01-10T18:33:30.844Z,5.13
2023-01-10T18:36:40.261Z,5.38
2023-01-10T18:39:47.480Z,5.88
2023-01-10T18:42:54.456Z,5.00
2023-01-10T18:46:02.658Z,4.97
2023-01-10T18:49:11.203Z,5.07
2023-01-10T18:52:16.918Z,5.05
2023-01-10T18:55:22.553Z,5.45
2023-01-10T18:58:28.597Z,5.32
2023-01-10T19:01:34.907Z,5.05
2023-01-10T19:04:43.419Z,5.28
2023-01-10T19:07:48.623Z,5.88
2023-01-10T19:11:12.355Z,4.95
2023-01-10T19:14:19.662Z,5.05
2023-01-10T19:17:25.525Z,5.13
2023-01-10T19:20:33.901Z,4.95
2023-01-10T19:23:39.370Z,5.07
2023-01-10T19:26:44.790Z,4.65
2023-01-10T19:29:50.441Z,5.30
2023-01-10T19:32:56.736Z,5.43
2023-01-10T19:36:07.147Z,5.13
2023-01-10T19:39:12.582Z,5.45
2023-01-10T19:42:17.983Z,4.55
2023-01-10T19:45:23.240Z,5.07
2023-01-10T19:48:29.113Z,5.50
2023-01-10T19:51:38.177Z,5.13
2023-01-10T19:54:43.977Z,4.93
2023-01-10T19:57:49.305Z,5.72
2023-01-10T20:00:54.494Z,5.38
2023-01-10T20:04:01.731Z,5.50
2023-01-10T20:07:09.869Z,4.57
2023-01-10T20:10:15.142Z,5.38
2023-01-10T20:13:20.488Z,5.25
2023-01-10T20:16:27.781Z,4.68
2023-01-10T20:19:33.029Z,5.25
2023-01-10T20:22:41.440Z,5.43
2023-01-10T20:25:47.087Z,5.63
2023-01-10T20:28:52.830Z,5.63
2023-01-10T20:32:01.188Z,5.85
2023-01-10T20:35:06.964Z,5.72
2023-01-10T20:38:14.819Z,6.05
2023-01-10T20:41:21.044Z,5.65
2023-01-10T20:44:26.523Z,6.20
2023-01-10T20:47:33.582Z,5.70
2023-01-10T20:50:38.735Z,5.45
2023-01-10T20:53:47.194Z,7.53
2023-01-10T20:56:52.879Z,8.32
2023-01-10T20:59:58.444Z,10.98
2023-01-10T21:03:03.662Z,7.35
2023-01-10T21:06:09.575Z,6.60
2023-01-10T21:09:17.476Z,5.38
2023-01-10T21:12:27.444Z,5.03
2023-01-10T21:15:33.646Z,4.55
2023-01-10T21:18:41.451Z,4.40
2023-01-10T21:21:46.716Z,4.43
2023-01-10T21:24:55.279Z,4.22
2023-01-10T21:28:00.652Z,4.13
2023-01-10T21:31:06.252Z,4.15
2023-01-10T21:34:11.574Z,4.40
2023-01-10T21:37:17.196Z,4.55
2023-01-10T21:40:25.243Z,5.35
2023-01-10T21:43:30.832Z,4.53
2023-01-10T21:46:36.311Z,4.40
2023-01-10T21:49:42.017Z,4.30
2023-01-10T21:52:47.605Z,3.55
2023-01-10T21:55:55.544Z,3.70
2023-01-10T22:02:05.685Z,3.85
2023-01-10T22:05:11.931Z,3.83
2023-01-10T22:08:17.212Z,3.53
2023-01-10T22:11:25.274Z,3.70
2023-01-10T22:17:36.012Z,3.58
2023-01-10T22:20:41.282Z,3.80
2023-01-10T22:23:46.861Z,3.05
2023-01-10T22:26:56.082Z,3.53
2023-01-10T22:30:01.464Z,3.63
2023-01-10T22:33:08.577Z,3.33
2023-01-10T22:36:16.863Z,4.25
2023-01-10T22:39:22.505Z,3.33
2023-01-10T22:42:30.775Z,3.85
2023-01-10T22:45:37.416Z,3.42
2023-01-10T22:48:42.988Z,3.28
2023-01-10T22:51:48.330Z,2.70
2023-01-10T22:54:53.826Z,3.70
2023-01-10T22:58:01.793Z,3.13
2023-01-10T23:04:12.504Z,3.55
2023-01-10T23:07:17.887Z,2.83
2023-01-10T23:10:30.133Z,3.30
2023-01-10T23:13:38.767Z,3.38
2023-01-10T23:16:44.962Z,3.42
2023-01-10T23:19:50.161Z,2.60
2023-01-10T23:22:55.571Z,3.47
2023-01-10T23:26:05.865Z,3.00
2023-01-10T23:29:14.125Z,2.90
2023-01-10T23:32:19.511Z,2.97
2023-01-10T23:35:25.157Z,3.20
2023-01-10T23:38:30.611Z,3.47
2023-01-10T23:41:36.111Z,2.50
2023-01-10T23:44:44.410Z,3.10
2023-01-10T23:50:54.822Z,2.58
2023-01-10T23:54:00.247Z,2.85
2023-01-10T23:57:05.631Z,2.92
